Insular — CSDD — position and weather

sailwx.info

Track history (hours):
 
Tides and Currents Weather Stations Pressure Air Temp Water Temp Dewpoint Dewpoint Depression Visibility Wind Speed Wind Dir Waves Ship Positions

Insular

Last reported at 2017-Feb-23 09:14 UTC. Time now 2017-Feb-24 21:40 UTC.
Position N 40°23' W 009°17'.

Length 120 m; draft 4.8 m.

Type: Ship (hazmat cat A). MMSI: 263752000.

Date/timePositionNaut miles runAvg speedWind from/ knotsBaromVisibWave heightAir tempDewpointWater temp
2017-Feb-23 09:14N 40°23' W 009°17'9714.6
2017-Feb-23 02:33N 39°06' W 010°34'1615.1
2017-Feb-23 01:31N 38°53' W 010°46'1515.1
2017-Feb-23 00:33N 38°42' W 010°57'1515.2
2017-Feb-22 23:33N 38°29' W 011°09'1515.1
2017-Feb-22 22:33N 38°17' W 011°20'2115.0
2017-Feb-22 21:10N 38°00' W 011°36'1215.3
2017-Feb-22 20:23N 37°51' W 011°45'  
2017-Feb-19 02:14N 38°13' W 009°55'1115.7
2017-Feb-19 01:33N 38°20' W 009°45'1615.8
2017-Feb-19 00:33N 38°31' W 009°31'1616.1
2017-Feb-18 23:33N 38°41' W 009°15'8 7.5
2017-Feb-18 22:32N 38°44' W 009°06'0 0.0
2017-Feb-18 21:32N 38°44' W 009°06'0 0.0
2017-Feb-18 20:23N 38°44' W 009°06'0 0.0
2017-Feb-18 19:29N 38°44' W 009°06'0 0.0
2017-Feb-18 18:32N 38°44' W 009°06'0 0.0
2017-Feb-18 17:32N 38°44' W 009°06'0 0.0
2017-Feb-18 16:32N 38°44' W 009°06'0 0.0
2017-Feb-18 15:32N 38°44' W 009°06'0 0.0
2017-Feb-18 14:32N 38°44' W 009°06'0 0.0
2017-Feb-18 13:32N 38°44' W 009°06'0 0.0
2017-Feb-18 12:29N 38°44' W 009°06'0 0.0
2017-Feb-18 11:32N 38°44' W 009°06'5 5.1
2017-Feb-18 10:29N 38°41' W 009°12'1212.7
2017-Feb-18 09:33N 38°37' W 009°26'1414.0
2017-Feb-18 08:34N 38°43' W 009°42'1616.2
2017-Feb-18 07:34N 38°60' W 009°43'1616.0
2017-Feb-18 06:33N 39°16' W 009°43'1616.1
2017-Feb-18 05:33N 39°32' W 009°43'4915.9
2017-Feb-18 02:27N 40°16' W 009°16'3015.8
2017-Feb-18 00:33N 40°44' W 008°60'87 3.9
2017-Feb-17 02:07N 39°38' W 010°13'916.0
2017-Feb-17 01:34N 39°30' W 010°20'1615.7
2017-Feb-17 00:34N 39°18' W 010°31'1615.7
2017-Feb-16 23:33N 39°05' W 010°43'1616.3
2017-Feb-16 22:33N 38°52' W 010°56'1616.5
2017-Feb-16 21:33N 38°39' W 011°09'  
Track history (hours):
 
Tides and Currents Weather Stations Pressure Air Temp Water Temp Dewpoint Dewpoint Depression Visibility Wind Speed Wind Dir Waves Ship Positions

Insular

Last reported at 2017-Feb-23 09:14 UTC. Time now 2017-Feb-24 21:40 UTC.
Position N 40°23' W 009°17'.

Length 120 m; draft 4.8 m.

Type: Ship (hazmat cat A). MMSI: 263752000.

Date/timePositionNaut miles runAvg speedWind from/ knotsBaromVisibWave heightAir tempDewpointWater temp
2017-Feb-23 09:14N 40°23' W 009°17'9714.6
2017-Feb-23 02:33N 39°06' W 010°34'1615.1
2017-Feb-23 01:31N 38°53' W 010°46'1515.1
2017-Feb-23 00:33N 38°42' W 010°57'1515.2
2017-Feb-22 23:33N 38°29' W 011°09'1515.1
2017-Feb-22 22:33N 38°17' W 011°20'2115.0
2017-Feb-22 21:10N 38°00' W 011°36'1215.3
2017-Feb-22 20:23N 37°51' W 011°45'  
2017-Feb-19 02:14N 38°13' W 009°55'1115.7
2017-Feb-19 01:33N 38°20' W 009°45'1615.8
2017-Feb-19 00:33N 38°31' W 009°31'1616.1
2017-Feb-18 23:33N 38°41' W 009°15'8 7.5
2017-Feb-18 22:32N 38°44' W 009°06'0 0.0
2017-Feb-18 21:32N 38°44' W 009°06'0 0.0
2017-Feb-18 20:23N 38°44' W 009°06'0 0.0
2017-Feb-18 19:29N 38°44' W 009°06'0 0.0
2017-Feb-18 18:32N 38°44' W 009°06'0 0.0
2017-Feb-18 17:32N 38°44' W 009°06'0 0.0
2017-Feb-18 16:32N 38°44' W 009°06'0 0.0
2017-Feb-18 15:32N 38°44' W 009°06'0 0.0
2017-Feb-18 14:32N 38°44' W 009°06'0 0.0
2017-Feb-18 13:32N 38°44' W 009°06'0 0.0
2017-Feb-18 12:29N 38°44' W 009°06'0 0.0
2017-Feb-18 11:32N 38°44' W 009°06'5 5.1
2017-Feb-18 10:29N 38°41' W 009°12'1212.7
2017-Feb-18 09:33N 38°37' W 009°26'1414.0
2017-Feb-18 08:34N 38°43' W 009°42'1616.2
2017-Feb-18 07:34N 38°60' W 009°43'1616.0
2017-Feb-18 06:33N 39°16' W 009°43'1616.1
2017-Feb-18 05:33N 39°32' W 009°43'4915.9
2017-Feb-18 02:27N 40°16' W 009°16'3015.8
2017-Feb-18 00:33N 40°44' W 008°60'87 3.9
2017-Feb-17 02:07N 39°38' W 010°13'916.0
2017-Feb-17 01:34N 39°30' W 010°20'1615.7
2017-Feb-17 00:34N 39°18' W 010°31'1615.7
2017-Feb-16 23:33N 39°05' W 010°43'1616.3
2017-Feb-16 22:33N 38°52' W 010°56'1616.5
2017-Feb-16 21:33N 38°39' W 011°09'  

Dump ship's entire track history